Terminal Aerodrome Forecast
Issued by NWS Lake Charles, LA

Home | Current Version | Previous Version | Text Only | Print | Product List | Glossary On
Versions: 1 2 3 4 5 6 7 8 9 10 11 12 13 14 15
000
FTUS44 KLCH 031728
TAFLFT
TAF
KLFT 031728Z 0318/0418 VRB04KT P6SM VCTS SCT025CB BKN035
      TEMPO 0318/0322 2SM TSRA BKN025CB
     FM040100 VRB03KT P6SM SCT025 SCT250
     FM041400 07004KT P6SM VCSH SCT025=

USA.gov is the U.S. government's official web portal to all federal, state and local government web resources and services.